メインページ
METAR-TAF:

METAR-TAF

空港 :

ラガーディア空港

ニューヨーク / ラガーディア, ニューヨーク, アメリカ合衆国

緯度: 40-46-45N, 経度: 073-52-48W, 海抜: 6m

現時点の気象観測

当レポートは35分前の02:51(UTC)に作成
東/北東の風 22kt
気温 3°C
湿度 100%
気圧 1015 hPa
視程: 8.0km
高度900ftの曇り
小雨, 靄

METAR: KLGA 160251Z 07022KT 5SM -RA BR OVC009 03/03 A2997 RMK AO2 PK WND 06029/0240 SLP147 P0012 60031 T00330028 56049 $

時間: 22:26 (03:26 UTC)

予報

当レポートは54分前の02:32(UTC)に作成
予報は16日の 03時(UTC)から 17日の 06時(UTC)まで有効
東/北東の風 22kt、最大33ktの突風を伴う
視程: 8.0km
高度800ftの曇り
小雨, 靄
16日の 0900時(UTC)から
北/北東の風 16kt、最大25ktの突風を伴う
視程: 6.4km
高度1000ftの曇り
弱いにわか雨, 靄
16日の 1200時(UTC)から
北/北西の風 20kt、最大28ktの突風を伴う
視程: 10km
高度1500ftの千切れ雲あり
高度3000ftの千切れ雲あり
近辺でにわか雨
16日の 1500時(UTC)から
北西の風 19kt、最大26ktの突風を伴う
視程: 10km
高度4000ftの雲は散在している
16日の 2100時(UTC)から
西/北西の風 16kt、最大22ktの突風を伴う
視程: 10km
高度25000ftの雲は散在している
17日の 0200時(UTC)から
西の風 15kt、最大20ktの突風を伴う
視程: 10km
高度25000ftの雲はほとんどない

TAF: KLGA 160232Z 1603/1706 07022G33KT 5SM -RA BR OVC008 WS020/09050KT FM160900 03016G25KT 4SM -SHRA BR OVC010 FM161200 33020G28KT P6SM VCSH BKN015 BKN030 FM161500 31019G26KT P6SM SCT040 FM162100 29016G22KT P6SM SCT250 FM170200 28015G20KT P6SM FEW250

4,000以上の空港の気象観測と天気予報(METAR報とTAF報)

利用可能な観測所は地図上に黄色い丸と赤い丸で示す。

丸の上にカーソルを重ねると観測所名を参照できる。

次にクリックすると気象観測と天気予報を参照できる。

マップの切り替え:黒色「×」印の緑ボタンをクリックして拡大、「-」印の緑ボタンをクリックして縮小、緑色の三角印をクリックして隣りの地図に切り替え


METAR-TAF: